Bonney, New York
Current Conditions -  °F | °C
As of 2:15 PM on Friday 21 Nov 2014 (Local Time) from KN03 Reporting Station
Scattered Clouds Scattered Clouds  
Wind Chill: 19°   Ceiling: Unl
Heat Index: 25°   Visibility: 7mi
Dew Point: 18°   Wind: 5mph
Humidity: 74%   Direction: 300°WNW
Pressure: 30.34"   Gusts: NA
Location:  42.6914°N, 75.6351°W
Report Text: KN03 211915Z AUTO 30004KT 7SM SCT013 SCT023 SCT029 M04/M08 A3034 RMK AO2
Loading
Personal Weather Stations






























Interactive Weather Map New forecast layout! Learn more

10-Day Weather Forecast

Advertisements
Track Severe Weather on mobile